sensor_id;sensor_type;location;lat;lon;timestamp;P1;durP1;ratioP1;P2;durP2;ratioP2
70365;SDS011;57787;48.216;12.396;2022-11-20T00:01:17;13.70;;;6.80;;
70365;SDS011;57787;48.216;12.396;2022-11-20T00:03:46;10.95;;;6.65;;
70365;SDS011;57787;48.216;12.396;2022-11-20T00:06:17;11.63;;;6.93;;
70365;SDS011;57787;48.216;12.396;2022-11-20T00:08:45;11.30;;;6.50;;
70365;SDS011;57787;48.216;12.396;2022-11-20T00:11:16;11.23;;;5.90;;
70365;SDS011;57787;48.216;12.396;2022-11-20T00:13:48;12.23;;;5.82;;
70365;SDS011;57787;48.216;12.396;2022-11-20T00:16:18;7.65;;;4.65;;
70365;SDS011;57787;48.216;12.396;2022-11-20T00:18:47;8.13;;;4.40;;
70365;SDS011;57787;48.216;12.396;2022-11-20T00:21:15;5.80;;;4.38;;
70365;SDS011;57787;48.216;12.396;2022-11-20T00:23:45;9.18;;;4.57;;
70365;SDS011;57787;48.216;12.396;2022-11-20T00:26:13;6.70;;;4.15;;
70365;SDS011;57787;48.216;12.396;2022-11-20T00:28:41;8.70;;;4.30;;
70365;SDS011;57787;48.216;12.396;2022-11-20T00:31:10;7.70;;;4.45;;
70365;SDS011;57787;48.216;12.396;2022-11-20T00:33:40;6.75;;;3.97;;
70365;SDS011;57787;48.216;12.396;2022-11-20T00:36:09;6.90;;;3.83;;
70365;SDS011;57787;48.216;12.396;2022-11-20T00:38:41;6.43;;;4.20;;
70365;SDS011;57787;48.216;12.396;2022-11-20T00:41:09;7.50;;;3.83;;
70365;SDS011;57787;48.216;12.396;2022-11-20T00:43:38;7.10;;;4.05;;
70365;SDS011;57787;48.216;12.396;2022-11-20T00:46:09;7.95;;;4.18;;
70365;SDS011;57787;48.216;12.396;2022-11-20T00:48:39;9.23;;;4.45;;
70365;SDS011;57787;48.216;12.396;2022-11-20T00:51:08;6.40;;;4.15;;
70365;SDS011;57787;48.216;12.396;2022-11-20T00:53:37;7.57;;;5.00;;
70365;SDS011;57787;48.216;12.396;2022-11-20T00:56:05;7.50;;;4.13;;
70365;SDS011;57787;48.216;12.396;2022-11-20T00:58:34;7.60;;;4.45;;
70365;SDS011;57787;48.216;12.396;2022-11-20T01:01:13;8.05;;;4.78;;
70365;SDS011;57787;48.216;12.396;2022-11-20T01:03:51;8.95;;;4.82;;
70365;SDS011;57787;48.216;12.396;2022-11-20T01:06:24;6.63;;;3.67;;
70365;SDS011;57787;48.216;12.396;2022-11-20T01:11:24;6.35;;;4.25;;
70365;SDS011;57787;48.216;12.396;2022-11-20T01:13:54;6.43;;;4.10;;
70365;SDS011;57787;48.216;12.396;2022-11-20T01:18:55;6.30;;;4.22;;
70365;SDS011;57787;48.216;12.396;2022-11-20T01:21:25;7.53;;;4.25;;
70365;SDS011;57787;48.216;12.396;2022-11-20T01:23:56;9.13;;;4.13;;
70365;SDS011;57787;48.216;12.396;2022-11-20T01:26:25;6.55;;;3.60;;
70365;SDS011;57787;48.216;12.396;2022-11-20T01:28:56;12.38;;;3.80;;
70365;SDS011;57787;48.216;12.396;2022-11-20T01:31:25;9.07;;;4.20;;
70365;SDS011;57787;48.216;12.396;2022-11-20T01:34:02;6.00;;;3.95;;
70365;SDS011;57787;48.216;12.396;2022-11-20T01:36:31;10.07;;;3.95;;
70365;SDS011;57787;48.216;12.396;2022-11-20T01:39:00;9.68;;;3.83;;
70365;SDS011;57787;48.216;12.396;2022-11-20T01:41:29;8.32;;;3.88;;
70365;SDS011;57787;48.216;12.396;2022-11-20T01:44:17;7.20;;;3.45;;
70365;SDS011;57787;48.216;12.396;2022-11-20T01:47:01;7.45;;;3.78;;
70365;SDS011;57787;48.216;12.396;2022-11-20T01:52:20;6.45;;;3.72;;
70365;SDS011;57787;48.216;12.396;2022-11-20T01:54:55;6.70;;;4.00;;
70365;SDS011;57787;48.216;12.396;2022-11-20T01:57:28;6.13;;;3.85;;
70365;SDS011;57787;48.216;12.396;2022-11-20T01:59:59;9.20;;;3.83;;
70365;SDS011;57787;48.216;12.396;2022-11-20T02:02:37;11.63;;;3.70;;
70365;SDS011;57787;48.216;12.396;2022-11-20T02:08:05;6.25;;;3.80;;
70365;SDS011;57787;48.216;12.396;2022-11-20T02:10:32;8.60;;;4.43;;
70365;SDS011;57787;48.216;12.396;2022-11-20T02:12:59;8.50;;;3.53;;
70365;SDS011;57787;48.216;12.396;2022-11-20T02:15:45;9.43;;;3.55;;
70365;SDS011;57787;48.216;12.396;2022-11-20T02:20:44;7.55;;;3.15;;
70365;SDS011;57787;48.216;12.396;2022-11-20T02:23:38;6.30;;;3.88;;
70365;SDS011;57787;48.216;12.396;2022-11-20T02:26:19;5.53;;;3.20;;
70365;SDS011;57787;48.216;12.396;2022-11-20T02:28:49;5.22;;;3.05;;
70365;SDS011;57787;48.216;12.396;2022-11-20T02:31:16;6.97;;;3.45;;
70365;SDS011;57787;48.216;12.396;2022-11-20T02:33:45;6.83;;;3.40;;
70365;SDS011;57787;48.216;12.396;2022-11-20T02:36:13;5.72;;;3.33;;
70365;SDS011;57787;48.216;12.396;2022-11-20T02:38:42;8.40;;;3.15;;
70365;SDS011;57787;48.216;12.396;2022-11-20T02:41:09;5.15;;;3.13;;
70365;SDS011;57787;48.216;12.396;2022-11-20T02:43:38;5.82;;;3.42;;
70365;SDS011;57787;48.216;12.396;2022-11-20T02:46:08;5.95;;;3.33;;
70365;SDS011;57787;48.216;12.396;2022-11-20T02:48:34;4.43;;;2.97;;
70365;SDS011;57787;48.216;12.396;2022-11-20T02:51:02;9.55;;;3.55;;
70365;SDS011;57787;48.216;12.396;2022-11-20T02:53:28;5.65;;;3.20;;
70365;SDS011;57787;48.216;12.396;2022-11-20T02:55:55;5.13;;;3.30;;
70365;SDS011;57787;48.216;12.396;2022-11-20T02:58:22;6.03;;;3.65;;
70365;SDS011;57787;48.216;12.396;2022-11-20T03:00:49;6.30;;;3.40;;
70365;SDS011;57787;48.216;12.396;2022-11-20T03:03:16;6.15;;;2.97;;
70365;SDS011;57787;48.216;12.396;2022-11-20T03:05:42;7.57;;;3.67;;
70365;SDS011;57787;48.216;12.396;2022-11-20T03:08:13;5.38;;;3.58;;
70365;SDS011;57787;48.216;12.396;2022-11-20T03:10:41;6.43;;;3.28;;
70365;SDS011;57787;48.216;12.396;2022-11-20T03:13:08;5.32;;;3.08;;
70365;SDS011;57787;48.216;12.396;2022-11-20T03:15:37;6.55;;;3.47;;
70365;SDS011;57787;48.216;12.396;2022-11-20T03:18:04;6.82;;;3.67;;
70365;SDS011;57787;48.216;12.396;2022-11-20T03:20:32;20.48;;;3.72;;
70365;SDS011;57787;48.216;12.396;2022-11-20T03:23:00;7.05;;;3.20;;
70365;SDS011;57787;48.216;12.396;2022-11-20T03:25:27;4.50;;;2.67;;
70365;SDS011;57787;48.216;12.396;2022-11-20T03:27:54;8.27;;;3.35;;
70365;SDS011;57787;48.216;12.396;2022-11-20T03:30:21;4.83;;;3.13;;
70365;SDS011;57787;48.216;12.396;2022-11-20T03:32:55;5.20;;;3.35;;
70365;SDS011;57787;48.216;12.396;2022-11-20T03:35:22;6.18;;;3.42;;
70365;SDS011;57787;48.216;12.396;2022-11-20T03:37:51;6.60;;;2.95;;
70365;SDS011;57787;48.216;12.396;2022-11-20T03:40:18;6.50;;;3.07;;
70365;SDS011;57787;48.216;12.396;2022-11-20T03:42:44;5.05;;;3.00;;
70365;SDS011;57787;48.216;12.396;2022-11-20T03:45:12;6.95;;;3.53;;
70365;SDS011;57787;48.216;12.396;2022-11-20T03:47:43;4.60;;;3.28;;
70365;SDS011;57787;48.216;12.396;2022-11-20T03:50:11;9.50;;;3.70;;
70365;SDS011;57787;48.216;12.396;2022-11-20T03:52:40;4.85;;;3.58;;
70365;SDS011;57787;48.216;12.396;2022-11-20T03:55:08;5.03;;;3.50;;
70365;SDS011;57787;48.216;12.396;2022-11-20T03:57:35;6.28;;;4.03;;
70365;SDS011;57787;48.216;12.396;2022-11-20T04:00:04;5.05;;;3.28;;
70365;SDS011;57787;48.216;12.396;2022-11-20T04:02:31;9.85;;;3.65;;
70365;SDS011;57787;48.216;12.396;2022-11-20T04:04:58;4.45;;;3.10;;
70365;SDS011;57787;48.216;12.396;2022-11-20T04:07:25;9.25;;;3.40;;
70365;SDS011;57787;48.216;12.396;2022-11-20T04:09:53;6.80;;;3.60;;
70365;SDS011;57787;48.216;12.396;2022-11-20T04:12:20;5.63;;;3.17;;
70365;SDS011;57787;48.216;12.396;2022-11-20T04:14:46;7.78;;;4.05;;
70365;SDS011;57787;48.216;12.396;2022-11-20T04:17:13;6.73;;;3.57;;
70365;SDS011;57787;48.216;12.396;2022-11-20T04:19:40;5.90;;;3.67;;
70365;SDS011;57787;48.216;12.396;2022-11-20T04:22:07;6.80;;;3.95;;
70365;SDS011;57787;48.216;12.396;2022-11-20T04:24:37;6.15;;;3.75;;
70365;SDS011;57787;48.216;12.396;2022-11-20T04:27:09;5.90;;;3.47;;
70365;SDS011;57787;48.216;12.396;2022-11-20T04:29:36;5.57;;;3.33;;
70365;SDS011;57787;48.216;12.396;2022-11-20T04:32:04;10.38;;;4.47;;
70365;SDS011;57787;48.216;12.396;2022-11-20T04:34:31;5.63;;;3.50;;
70365;SDS011;57787;48.216;12.396;2022-11-20T04:36:57;6.65;;;3.42;;
70365;SDS011;57787;48.216;12.396;2022-11-20T04:39:25;6.82;;;3.95;;
70365;SDS011;57787;48.216;12.396;2022-11-20T04:41:54;6.20;;;4.18;;
70365;SDS011;57787;48.216;12.396;2022-11-20T04:44:47;10.05;;;6.05;;
70365;SDS011;57787;48.216;12.396;2022-11-20T04:47:14;48.40;;;20.25;;
70365;SDS011;57787;48.216;12.396;2022-11-20T04:49:41;66.55;;;28.38;;
70365;SDS011;57787;48.216;12.396;2022-11-20T04:52:08;41.40;;;18.50;;
70365;SDS011;57787;48.216;12.396;2022-11-20T04:54:34;36.90;;;19.33;;
70365;SDS011;57787;48.216;12.396;2022-11-20T04:57:01;16.75;;;10.93;;
70365;SDS011;57787;48.216;12.396;2022-11-20T04:59:29;9.97;;;5.53;;
70365;SDS011;57787;48.216;12.396;2022-11-20T05:01:56;9.68;;;5.88;;
70365;SDS011;57787;48.216;12.396;2022-11-20T05:04:23;8.93;;;5.53;;
70365;SDS011;57787;48.216;12.396;2022-11-20T05:06:50;11.00;;;6.07;;
70365;SDS011;57787;48.216;12.396;2022-11-20T05:09:16;11.75;;;6.28;;
70365;SDS011;57787;48.216;12.396;2022-11-20T05:11:44;8.48;;;4.60;;
70365;SDS011;57787;48.216;12.396;2022-11-20T05:14:16;9.50;;;5.35;;
70365;SDS011;57787;48.216;12.396;2022-11-20T05:16:44;7.78;;;4.28;;
70365;SDS011;57787;48.216;12.396;2022-11-20T05:19:11;5.65;;;3.78;;
70365;SDS011;57787;48.216;12.396;2022-11-20T05:21:38;5.50;;;4.10;;
70365;SDS011;57787;48.216;12.396;2022-11-20T05:24:05;6.43;;;3.43;;
70365;SDS011;57787;48.216;12.396;2022-11-20T05:26:33;5.75;;;3.10;;
70365;SDS011;57787;48.216;12.396;2022-11-20T05:29:03;6.80;;;3.58;;
70365;SDS011;57787;48.216;12.396;2022-11-20T05:31:30;4.07;;;2.85;;
70365;SDS011;57787;48.216;12.396;2022-11-20T05:33:58;9.03;;;3.03;;
70365;SDS011;57787;48.216;12.396;2022-11-20T05:36:27;4.70;;;2.95;;
70365;SDS011;57787;48.216;12.396;2022-11-20T05:38:53;5.82;;;2.83;;
70365;SDS011;57787;48.216;12.396;2022-11-20T05:41:26;4.35;;;3.03;;
70365;SDS011;57787;48.216;12.396;2022-11-20T05:43:53;5.35;;;2.95;;
70365;SDS011;57787;48.216;12.396;2022-11-20T05:46:21;5.88;;;3.22;;
70365;SDS011;57787;48.216;12.396;2022-11-20T05:48:54;5.55;;;2.92;;
70365;SDS011;57787;48.216;12.396;2022-11-20T05:51:21;6.13;;;2.80;;
70365;SDS011;57787;48.216;12.396;2022-11-20T05:53:48;4.63;;;2.70;;
70365;SDS011;57787;48.216;12.396;2022-11-20T05:56:16;5.47;;;3.35;;
70365;SDS011;57787;48.216;12.396;2022-11-20T05:58:45;7.05;;;3.47;;
70365;SDS011;57787;48.216;12.396;2022-11-20T06:01:19;7.50;;;4.32;;
70365;SDS011;57787;48.216;12.396;2022-11-20T06:03:48;7.05;;;3.55;;
70365;SDS011;57787;48.216;12.396;2022-11-20T06:06:17;7.75;;;3.05;;
70365;SDS011;57787;48.216;12.396;2022-11-20T06:08:46;6.43;;;3.13;;
70365;SDS011;57787;48.216;12.396;2022-11-20T06:11:13;3.85;;;3.10;;
70365;SDS011;57787;48.216;12.396;2022-11-20T06:13:42;3.33;;;2.40;;
70365;SDS011;57787;48.216;12.396;2022-11-20T06:16:12;4.63;;;2.60;;
70365;SDS011;57787;48.216;12.396;2022-11-20T06:18:40;6.45;;;2.65;;
70365;SDS011;57787;48.216;12.396;2022-11-20T06:21:08;5.38;;;2.90;;
70365;SDS011;57787;48.216;12.396;2022-11-20T06:23:36;4.47;;;2.92;;
70365;SDS011;57787;48.216;12.396;2022-11-20T06:26:16;5.15;;;2.53;;
70365;SDS011;57787;48.216;12.396;2022-11-20T06:31:12;6.35;;;2.85;;
70365;SDS011;57787;48.216;12.396;2022-11-20T06:33:41;6.63;;;3.17;;
70365;SDS011;57787;48.216;12.396;2022-11-20T06:36:09;5.25;;;3.80;;
70365;SDS011;57787;48.216;12.396;2022-11-20T06:38:38;6.60;;;4.30;;
70365;SDS011;57787;48.216;12.396;2022-11-20T06:41:06;7.25;;;4.13;;
70365;SDS011;57787;48.216;12.396;2022-11-20T06:43:36;7.15;;;4.05;;
70365;SDS011;57787;48.216;12.396;2022-11-20T06:46:03;7.25;;;4.00;;
70365;SDS011;57787;48.216;12.396;2022-11-20T06:48:30;6.03;;;3.92;;
70365;SDS011;57787;48.216;12.396;2022-11-20T06:50:57;4.53;;;3.03;;
70365;SDS011;57787;48.216;12.396;2022-11-20T06:53:26;11.50;;;3.17;;
70365;SDS011;57787;48.216;12.396;2022-11-20T06:55:55;4.13;;;3.05;;
70365;SDS011;57787;48.216;12.396;2022-11-20T06:58:28;5.25;;;2.90;;
70365;SDS011;57787;48.216;12.396;2022-11-20T07:00:58;5.45;;;3.45;;
70365;SDS011;57787;48.216;12.396;2022-11-20T07:03:28;4.05;;;2.63;;
70365;SDS011;57787;48.216;12.396;2022-11-20T07:05:55;6.15;;;3.38;;
70365;SDS011;57787;48.216;12.396;2022-11-20T07:08:22;4.82;;;3.20;;
70365;SDS011;57787;48.216;12.396;2022-11-20T07:10:49;5.97;;;2.90;;
70365;SDS011;57787;48.216;12.396;2022-11-20T07:13:16;6.50;;;3.15;;
70365;SDS011;57787;48.216;12.396;2022-11-20T07:15:44;4.05;;;2.97;;
70365;SDS011;57787;48.216;12.396;2022-11-20T07:18:11;4.03;;;2.77;;
70365;SDS011;57787;48.216;12.396;2022-11-20T07:20:39;8.13;;;3.50;;
70365;SDS011;57787;48.216;12.396;2022-11-20T07:23:06;3.85;;;2.58;;
70365;SDS011;57787;48.216;12.396;2022-11-20T07:25:33;4.72;;;2.80;;
70365;SDS011;57787;48.216;12.396;2022-11-20T07:28:00;5.80;;;3.20;;
70365;SDS011;57787;48.216;12.396;2022-11-20T07:30:27;4.05;;;2.85;;
70365;SDS011;57787;48.216;12.396;2022-11-20T07:32:54;6.38;;;2.97;;
70365;SDS011;57787;48.216;12.396;2022-11-20T07:35:23;4.68;;;3.35;;
70365;SDS011;57787;48.216;12.396;2022-11-20T07:37:50;7.88;;;4.47;;
70365;SDS011;57787;48.216;12.396;2022-11-20T07:40:17;5.60;;;3.33;;
70365;SDS011;57787;48.216;12.396;2022-11-20T07:42:48;6.70;;;3.78;;
70365;SDS011;57787;48.216;12.396;2022-11-20T07:45:16;6.60;;;3.38;;
70365;SDS011;57787;48.216;12.396;2022-11-20T07:47:43;5.57;;;3.28;;
70365;SDS011;57787;48.216;12.396;2022-11-20T07:50:12;4.17;;;3.00;;
70365;SDS011;57787;48.216;12.396;2022-11-20T07:52:41;7.25;;;3.15;;
70365;SDS011;57787;48.216;12.396;2022-11-20T07:55:08;4.03;;;2.33;;
70365;SDS011;57787;48.216;12.396;2022-11-20T07:57:36;5.03;;;2.90;;
70365;SDS011;57787;48.216;12.396;2022-11-20T08:00:03;4.82;;;3.05;;
70365;SDS011;57787;48.216;12.396;2022-11-20T08:02:31;3.78;;;2.67;;
70365;SDS011;57787;48.216;12.396;2022-11-20T08:04:59;5.57;;;3.40;;
70365;SDS011;57787;48.216;12.396;2022-11-20T08:07:27;9.07;;;5.40;;
70365;SDS011;57787;48.216;12.396;2022-11-20T08:09:53;14.23;;;8.82;;
70365;SDS011;57787;48.216;12.396;2022-11-20T08:12:20;8.05;;;5.22;;
70365;SDS011;57787;48.216;12.396;2022-11-20T08:15:13;17.27;;;8.68;;
70365;SDS011;57787;48.216;12.396;2022-11-20T08:17:40;14.00;;;7.38;;
70365;SDS011;57787;48.216;12.396;2022-11-20T08:20:07;8.60;;;5.97;;
70365;SDS011;57787;48.216;12.396;2022-11-20T08:22:34;8.05;;;5.30;;
70365;SDS011;57787;48.216;12.396;2022-11-20T08:25:01;10.25;;;6.05;;
70365;SDS011;57787;48.216;12.396;2022-11-20T08:27:34;6.43;;;4.63;;
70365;SDS011;57787;48.216;12.396;2022-11-20T08:30:04;13.20;;;7.40;;
70365;SDS011;57787;48.216;12.396;2022-11-20T08:32:31;9.18;;;5.70;;
70365;SDS011;57787;48.216;12.396;2022-11-20T08:34:58;12.00;;;5.82;;
70365;SDS011;57787;48.216;12.396;2022-11-20T08:37:24;5.97;;;4.10;;
70365;SDS011;57787;48.216;12.396;2022-11-20T08:39:51;8.30;;;4.97;;
70365;SDS011;57787;48.216;12.396;2022-11-20T08:42:19;10.52;;;6.32;;
70365;SDS011;57787;48.216;12.396;2022-11-20T08:44:46;10.33;;;6.80;;
70365;SDS011;57787;48.216;12.396;2022-11-20T08:47:13;10.70;;;6.47;;
70365;SDS011;57787;48.216;12.396;2022-11-20T08:49:39;12.45;;;7.05;;
70365;SDS011;57787;48.216;12.396;2022-11-20T08:52:07;6.75;;;4.00;;
70365;SDS011;57787;48.216;12.396;2022-11-20T08:54:35;8.50;;;4.90;;
70365;SDS011;57787;48.216;12.396;2022-11-20T08:57:03;16.67;;;6.82;;
70365;SDS011;57787;48.216;12.396;2022-11-20T08:59:30;15.40;;;7.75;;
70365;SDS011;57787;48.216;12.396;2022-11-20T09:02:17;12.15;;;8.30;;
70365;SDS011;57787;48.216;12.396;2022-11-20T09:04:45;9.13;;;5.68;;
70365;SDS011;57787;48.216;12.396;2022-11-20T09:07:13;5.22;;;3.03;;
70365;SDS011;57787;48.216;12.396;2022-11-20T09:09:41;3.30;;;2.35;;
70365;SDS011;57787;48.216;12.396;2022-11-20T09:12:08;5.68;;;4.40;;
70365;SDS011;57787;48.216;12.396;2022-11-20T09:14:36;3.83;;;3.10;;
70365;SDS011;57787;48.216;12.396;2022-11-20T09:17:03;3.65;;;2.50;;
70365;SDS011;57787;48.216;12.396;2022-11-20T09:19:29;4.65;;;1.80;;
70365;SDS011;57787;48.216;12.396;2022-11-20T09:22:02;3.17;;;1.92;;
70365;SDS011;57787;48.216;12.396;2022-11-20T09:24:33;2.38;;;1.75;;
70365;SDS011;57787;48.216;12.396;2022-11-20T09:27:03;2.45;;;1.65;;
70365;SDS011;57787;48.216;12.396;2022-11-20T09:29:31;2.88;;;1.67;;
70365;SDS011;57787;48.216;12.396;2022-11-20T09:31:58;2.17;;;1.60;;
70365;SDS011;57787;48.216;12.396;2022-11-20T09:34:25;2.23;;;1.70;;
70365;SDS011;57787;48.216;12.396;2022-11-20T09:36:52;1.95;;;1.42;;
70365;SDS011;57787;48.216;12.396;2022-11-20T09:39:20;2.40;;;1.50;;
70365;SDS011;57787;48.216;12.396;2022-11-20T09:42:01;3.17;;;1.50;;
70365;SDS011;57787;48.216;12.396;2022-11-20T09:48:10;2.40;;;2.03;;
70365;SDS011;57787;48.216;12.396;2022-11-20T09:53:35;1.48;;;1.10;;
70365;SDS011;57787;48.216;12.396;2022-11-20T09:56:24;3.25;;;1.15;;
70365;SDS011;57787;48.216;12.396;2022-11-20T10:01:21;2.28;;;1.40;;
70365;SDS011;57787;48.216;12.396;2022-11-20T10:06:33;1.75;;;1.30;;
70365;SDS011;57787;48.216;12.396;2022-11-20T10:14:22;2.53;;;1.25;;
70365;SDS011;57787;48.216;12.396;2022-11-20T10:22:58;1.92;;;1.30;;
70365;SDS011;57787;48.216;12.396;2022-11-20T10:25:39;4.53;;;2.47;;
70365;SDS011;57787;48.216;12.396;2022-11-20T10:37:02;2.80;;;1.40;;
70365;SDS011;57787;48.216;12.396;2022-11-20T10:39:49;2.78;;;1.73;;
70365;SDS011;57787;48.216;12.396;2022-11-20T10:42:51;2.03;;;1.30;;
70365;SDS011;57787;48.216;12.396;2022-11-20T10:50:35;3.83;;;1.40;;
70365;SDS011;57787;48.216;12.396;2022-11-20T10:55:55;3.95;;;2.50;;
70365;SDS011;57787;48.216;12.396;2022-11-20T11:01:21;9.23;;;4.93;;
70365;SDS011;57787;48.216;12.396;2022-11-20T11:03:56;7.65;;;4.45;;
70365;SDS011;57787;48.216;12.396;2022-11-20T11:09:17;18.73;;;12.07;;
70365;SDS011;57787;48.216;12.396;2022-11-20T11:11:51;7.07;;;2.90;;
70365;SDS011;57787;48.216;12.396;2022-11-20T11:14:18;9.60;;;6.50;;
70365;SDS011;57787;48.216;12.396;2022-11-20T11:16:52;5.70;;;3.80;;
70365;SDS011;57787;48.216;12.396;2022-11-20T11:19:22;1.95;;;1.52;;
70365;SDS011;57787;48.216;12.396;2022-11-20T11:21:55;2.80;;;1.40;;
70365;SDS011;57787;48.216;12.396;2022-11-20T11:24:27;4.13;;;1.55;;
70365;SDS011;57787;48.216;12.396;2022-11-20T11:27:11;3.40;;;1.40;;
70365;SDS011;57787;48.216;12.396;2022-11-20T11:29:49;4.57;;;2.22;;
70365;SDS011;57787;48.216;12.396;2022-11-20T11:32:19;3.05;;;0.90;;
70365;SDS011;57787;48.216;12.396;2022-11-20T11:35:04;2.90;;;1.35;;
70365;SDS011;57787;48.216;12.396;2022-11-20T11:37:33;2.75;;;1.70;;
70365;SDS011;57787;48.216;12.396;2022-11-20T11:40:02;3.70;;;1.08;;
70365;SDS011;57787;48.216;12.396;2022-11-20T11:43:35;1.70;;;0.80;;
70365;SDS011;57787;48.216;12.396;2022-11-20T11:46:29;2.40;;;0.75;;
70365;SDS011;57787;48.216;12.396;2022-11-20T11:54:24;12.25;;;7.68;;
70365;SDS011;57787;48.216;12.396;2022-11-20T12:00:03;4.93;;;3.50;;
70365;SDS011;57787;48.216;12.396;2022-11-20T12:10:37;1.75;;;0.80;;
70365;SDS011;57787;48.216;12.396;2022-11-20T12:13:39;0.73;;;0.45;;
70365;SDS011;57787;48.216;12.396;2022-11-20T12:16:16;2.03;;;0.82;;
70365;SDS011;57787;48.216;12.396;2022-11-20T12:18:48;1.75;;;0.70;;
70365;SDS011;57787;48.216;12.396;2022-11-20T12:21:20;0.90;;;0.50;;
70365;SDS011;57787;48.216;12.396;2022-11-20T12:24:07;0.65;;;0.40;;
70365;SDS011;57787;48.216;12.396;2022-11-20T12:37:38;6.00;;;2.33;;
70365;SDS011;57787;48.216;12.396;2022-11-20T12:40:17;6.60;;;1.98;;
70365;SDS011;57787;48.216;12.396;2022-11-20T12:43:06;1.52;;;0.93;;
70365;SDS011;57787;48.216;12.396;2022-11-20T12:46:17;1.70;;;0.80;;
70365;SDS011;57787;48.216;12.396;2022-11-20T12:57:50;1.55;;;1.17;;
70365;SDS011;57787;48.216;12.396;2022-11-20T13:00:23;2.80;;;0.90;;
70365;SDS011;57787;48.216;12.396;2022-11-20T13:05:21;1.80;;;0.80;;
70365;SDS011;57787;48.216;12.396;2022-11-20T13:07:58;1.05;;;0.60;;
70365;SDS011;57787;48.216;12.396;2022-11-20T13:16:19;1.40;;;0.70;;
70365;SDS011;57787;48.216;12.396;2022-11-20T13:18:54;1.05;;;0.80;;
70365;SDS011;57787;48.216;12.396;2022-11-20T13:21:35;3.83;;;0.80;;
70365;SDS011;57787;48.216;12.396;2022-11-20T13:24:19;1.80;;;0.77;;
70365;SDS011;57787;48.216;12.396;2022-11-20T13:26:46;15.43;;;6.18;;
70365;SDS011;57787;48.216;12.396;2022-11-20T13:29:17;6.18;;;2.97;;
70365;SDS011;57787;48.216;12.396;2022-11-20T13:31:48;1.90;;;1.10;;
70365;SDS011;57787;48.216;12.396;2022-11-20T13:34:23;2.13;;;0.98;;
70365;SDS011;57787;48.216;12.396;2022-11-20T13:36:53;6.32;;;3.03;;
70365;SDS011;57787;48.216;12.396;2022-11-20T13:39:25;5.82;;;2.58;;
70365;SDS011;57787;48.216;12.396;2022-11-20T13:41:58;3.70;;;1.95;;
70365;SDS011;57787;48.216;12.396;2022-11-20T13:46:56;4.00;;;1.83;;
70365;SDS011;57787;48.216;12.396;2022-11-20T13:49:34;2.00;;;0.60;;
70365;SDS011;57787;48.216;12.396;2022-11-20T13:52:33;2.83;;;1.42;;
70365;SDS011;57787;48.216;12.396;2022-11-20T14:01:16;1.90;;;1.13;;
70365;SDS011;57787;48.216;12.396;2022-11-20T14:03:55;3.42;;;1.10;;
70365;SDS011;57787;48.216;12.396;2022-11-20T14:06:41;4.47;;;1.60;;
70365;SDS011;57787;48.216;12.396;2022-11-20T14:09:31;6.88;;;2.53;;
70365;SDS011;57787;48.216;12.396;2022-11-20T14:12:01;35.33;;;14.52;;
70365;SDS011;57787;48.216;12.396;2022-11-20T14:14:30;28.60;;;12.65;;
70365;SDS011;57787;48.216;12.396;2022-11-20T14:17:19;4.10;;;2.88;;
70365;SDS011;57787;48.216;12.396;2022-11-20T14:19:47;3.97;;;1.90;;
70365;SDS011;57787;48.216;12.396;2022-11-20T14:22:24;3.22;;;2.40;;
70365;SDS011;57787;48.216;12.396;2022-11-20T14:27:42;2.05;;;1.60;;
70365;SDS011;57787;48.216;12.396;2022-11-20T14:30:17;3.40;;;1.77;;
70365;SDS011;57787;48.216;12.396;2022-11-20T14:32:46;3.50;;;1.55;;
70365;SDS011;57787;48.216;12.396;2022-11-20T14:35:26;5.97;;;2.90;;
70365;SDS011;57787;48.216;12.396;2022-11-20T14:37:57;3.75;;;3.05;;
70365;SDS011;57787;48.216;12.396;2022-11-20T14:42:58;2.83;;;2.03;;
70365;SDS011;57787;48.216;12.396;2022-11-20T14:45:25;1.85;;;1.33;;
70365;SDS011;57787;48.216;12.396;2022-11-20T14:47:55;47.50;;;19.90;;
70365;SDS011;57787;48.216;12.396;2022-11-20T14:50:25;9.68;;;4.78;;
70365;SDS011;57787;48.216;12.396;2022-11-20T14:52:55;2.40;;;1.60;;
70365;SDS011;57787;48.216;12.396;2022-11-20T14:55:42;3.78;;;1.45;;
70365;SDS011;57787;48.216;12.396;2022-11-20T14:58:23;5.72;;;2.60;;
70365;SDS011;57787;48.216;12.396;2022-11-20T15:00:56;6.25;;;2.40;;
70365;SDS011;57787;48.216;12.396;2022-11-20T15:03:34;5.10;;;2.60;;
70365;SDS011;57787;48.216;12.396;2022-11-20T15:06:04;1.75;;;1.40;;
70365;SDS011;57787;48.216;12.396;2022-11-20T15:08:50;3.80;;;1.42;;
70365;SDS011;57787;48.216;12.396;2022-11-20T15:11:19;2.88;;;1.55;;
70365;SDS011;57787;48.216;12.396;2022-11-20T15:13:52;2.17;;;1.10;;
70365;SDS011;57787;48.216;12.396;2022-11-20T15:16:20;2.92;;;1.10;;
70365;SDS011;57787;48.216;12.396;2022-11-20T15:18:50;3.92;;;1.42;;
70365;SDS011;57787;48.216;12.396;2022-11-20T15:21:19;8.18;;;4.13;;
70365;SDS011;57787;48.216;12.396;2022-11-20T15:23:50;8.52;;;4.97;;
70365;SDS011;57787;48.216;12.396;2022-11-20T15:26:26;13.30;;;6.50;;
70365;SDS011;57787;48.216;12.396;2022-11-20T15:28:54;9.18;;;3.30;;
70365;SDS011;57787;48.216;12.396;2022-11-20T15:33:50;3.65;;;2.22;;
70365;SDS011;57787;48.216;12.396;2022-11-20T15:36:18;11.55;;;4.55;;
70365;SDS011;57787;48.216;12.396;2022-11-20T15:38:46;12.32;;;5.95;;
70365;SDS011;57787;48.216;12.396;2022-11-20T15:41:13;7.07;;;3.55;;
70365;SDS011;57787;48.216;12.396;2022-11-20T15:43:40;6.47;;;3.28;;
70365;SDS011;57787;48.216;12.396;2022-11-20T15:46:11;6.80;;;3.53;;
70365;SDS011;57787;48.216;12.396;2022-11-20T15:48:42;4.03;;;2.50;;
70365;SDS011;57787;48.216;12.396;2022-11-20T15:51:24;3.35;;;2.22;;
70365;SDS011;57787;48.216;12.396;2022-11-20T15:54:14;3.22;;;2.13;;
70365;SDS011;57787;48.216;12.396;2022-11-20T15:56:44;4.25;;;2.75;;
70365;SDS011;57787;48.216;12.396;2022-11-20T15:59:11;2.73;;;2.20;;
70365;SDS011;57787;48.216;12.396;2022-11-20T16:01:38;4.63;;;2.33;;
70365;SDS011;57787;48.216;12.396;2022-11-20T16:04:16;3.40;;;2.30;;
70365;SDS011;57787;48.216;12.396;2022-11-20T16:06:43;2.58;;;1.95;;
70365;SDS011;57787;48.216;12.396;2022-11-20T16:09:11;2.20;;;1.85;;
70365;SDS011;57787;48.216;12.396;2022-11-20T16:11:39;3.10;;;1.95;;
70365;SDS011;57787;48.216;12.396;2022-11-20T16:14:09;3.10;;;1.92;;
70365;SDS011;57787;48.216;12.396;2022-11-20T16:16:55;2.90;;;1.85;;
70365;SDS011;57787;48.216;12.396;2022-11-20T16:19:23;4.77;;;3.10;;
70365;SDS011;57787;48.216;12.396;2022-11-20T16:21:49;6.07;;;2.25;;
70365;SDS011;57787;48.216;12.396;2022-11-20T16:24:17;3.03;;;2.13;;
70365;SDS011;57787;48.216;12.396;2022-11-20T16:26:44;5.83;;;2.30;;
70365;SDS011;57787;48.216;12.396;2022-11-20T16:29:10;3.07;;;2.00;;
70365;SDS011;57787;48.216;12.396;2022-11-20T16:31:38;2.90;;;2.60;;
70365;SDS011;57787;48.216;12.396;2022-11-20T16:34:06;3.58;;;2.42;;
70365;SDS011;57787;48.216;12.396;2022-11-20T16:36:42;4.18;;;3.03;;
70365;SDS011;57787;48.216;12.396;2022-11-20T16:39:11;4.72;;;3.00;;
70365;SDS011;57787;48.216;12.396;2022-11-20T16:41:48;4.45;;;3.00;;
70365;SDS011;57787;48.216;12.396;2022-11-20T16:44:15;4.13;;;2.70;;
70365;SDS011;57787;48.216;12.396;2022-11-20T16:46:42;21.57;;;9.33;;
70365;SDS011;57787;48.216;12.396;2022-11-20T16:49:12;43.08;;;15.73;;
70365;SDS011;57787;48.216;12.396;2022-11-20T16:51:39;20.70;;;9.25;;
70365;SDS011;57787;48.216;12.396;2022-11-20T16:54:08;35.40;;;14.35;;
70365;SDS011;57787;48.216;12.396;2022-11-20T16:56:35;43.17;;;16.45;;
70365;SDS011;57787;48.216;12.396;2022-11-20T16:59:03;73.32;;;24.90;;